sensor_id;sensor_type;location;lat;lon;timestamp;pressure;altitude;pressure_sealevel;temperature;humidity
7802;BME280;3945;48.952;9.506;2023-04-24T00:01:16;96943.28;;;11.65;88.62
7802;BME280;3945;48.952;9.506;2023-04-24T00:03:44;96932.63;;;11.65;88.52
7802;BME280;3945;48.952;9.506;2023-04-24T00:06:10;96928.09;;;11.61;89.10
7802;BME280;3945;48.952;9.506;2023-04-24T00:08:37;96920.91;;;11.61;88.06
7802;BME280;3945;48.952;9.506;2023-04-24T00:11:05;96920.09;;;11.61;88.31
7802;BME280;3945;48.952;9.506;2023-04-24T00:13:31;96925.16;;;11.62;89.14
7802;BME280;3945;48.952;9.506;2023-04-24T00:15:58;96934.50;;;11.65;89.45
7802;BME280;3945;48.952;9.506;2023-04-24T00:18:24;96921.16;;;11.65;89.51
7802;BME280;3945;48.952;9.506;2023-04-24T00:20:50;96917.72;;;11.64;89.92
7802;BME280;3945;48.952;9.506;2023-04-24T00:23:17;96914.78;;;11.61;89.52
7802;BME280;3945;48.952;9.506;2023-04-24T00:25:43;96931.06;;;11.54;90.38
7802;BME280;3945;48.952;9.506;2023-04-24T00:28:11;96931.31;;;11.53;90.59
7802;BME280;3945;48.952;9.506;2023-04-24T00:30:37;96931.88;;;11.50;90.27
7802;BME280;3945;48.952;9.506;2023-04-24T00:33:03;96926.56;;;11.50;90.65
7802;BME280;3945;48.952;9.506;2023-04-24T00:35:30;96919.63;;;11.49;91.01
7802;BME280;3945;48.952;9.506;2023-04-24T00:37:56;96930.28;;;11.49;91.03
7802;BME280;3945;48.952;9.506;2023-04-24T00:40:22;96933.22;;;11.52;90.96
7802;BME280;3945;48.952;9.506;2023-04-24T00:42:49;96925.72;;;11.54;90.97
7802;BME280;3945;48.952;9.506;2023-04-24T00:45:16;96926.25;;;11.56;91.37
7802;BME280;3945;48.952;9.506;2023-04-24T00:47:43;96931.06;;;11.59;91.28
7802;BME280;3945;48.952;9.506;2023-04-24T00:50:09;96943.28;;;11.60;91.59
7802;BME280;3945;48.952;9.506;2023-04-24T00:52:36;96934.22;;;11.61;91.43
7802;BME280;3945;48.952;9.506;2023-04-24T00:55:05;96921.72;;;11.62;91.50
7802;BME280;3945;48.952;9.506;2023-04-24T00:57:32;96919.84;;;11.62;91.51
7802;BME280;3945;48.952;9.506;2023-04-24T00:59:59;96923.31;;;11.63;89.56
7802;BME280;3945;48.952;9.506;2023-04-24T01:02:27;96922.25;;;11.64;89.59
7802;BME280;3945;48.952;9.506;2023-04-24T01:04:54;96914.25;;;11.64;90.22
7802;BME280;3945;48.952;9.506;2023-04-24T01:07:21;96915.03;;;11.64;90.14
7802;BME280;3945;48.952;9.506;2023-04-24T01:09:48;96911.59;;;11.64;89.83
7802;BME280;3945;48.952;9.506;2023-04-24T01:12:16;96904.66;;;11.63;90.39
7802;BME280;3945;48.952;9.506;2023-04-24T01:14:42;96907.06;;;11.59;90.27
7802;BME280;3945;48.952;9.506;2023-04-24T01:17:09;96913.19;;;11.60;90.92
7802;BME280;3945;48.952;9.506;2023-04-24T01:19:37;96908.94;;;11.59;91.23
7802;BME280;3945;48.952;9.506;2023-04-24T01:22:08;96911.88;;;11.57;91.21
7802;BME280;3945;48.952;9.506;2023-04-24T01:24:36;96913.19;;;11.55;90.62
7802;BME280;3945;48.952;9.506;2023-04-24T01:27:03;96903.34;;;11.55;90.76
7802;BME280;3945;48.952;9.506;2023-04-24T01:29:29;96896.69;;;11.58;91.29
7802;BME280;3945;48.952;9.506;2023-04-24T01:31:55;96894.03;;;11.58;90.78
7802;BME280;3945;48.952;9.506;2023-04-24T01:34:23;96891.09;;;11.59;90.61
7802;BME280;3945;48.952;9.506;2023-04-24T01:36:49;96892.97;;;11.59;90.47
7802;BME280;3945;48.952;9.506;2023-04-24T01:39:17;96884.97;;;11.59;89.30
7802;BME280;3945;48.952;9.506;2023-04-24T01:41:45;96881.50;;;11.58;89.55
7802;BME280;3945;48.952;9.506;2023-04-24T01:44:11;96879.34;;;11.60;89.83
7802;BME280;3945;48.952;9.506;2023-04-24T01:46:38;96882.31;;;11.59;90.54
7802;BME280;3945;48.952;9.506;2023-04-24T01:49:04;96886.03;;;11.58;90.61
7802;BME280;3945;48.952;9.506;2023-04-24T01:51:30;96878.84;;;11.58;89.65
7802;BME280;3945;48.952;9.506;2023-04-24T01:53:57;96872.44;;;11.59;87.94
7802;BME280;3945;48.952;9.506;2023-04-24T01:56:25;96866.31;;;11.59;85.71
7802;BME280;3945;48.952;9.506;2023-04-24T01:58:51;96867.09;;;11.59;85.10
7802;BME280;3945;48.952;9.506;2023-04-24T02:01:18;96873.78;;;11.57;85.92
7802;BME280;3945;48.952;9.506;2023-04-24T02:03:45;96869.50;;;11.56;86.12
7802;BME280;3945;48.952;9.506;2023-04-24T02:06:11;96868.19;;;11.53;86.30
7802;BME280;3945;48.952;9.506;2023-04-24T02:08:38;96871.94;;;11.52;85.09
7802;BME280;3945;48.952;9.506;2023-04-24T02:11:04;96873.81;;;11.52;84.99
7802;BME280;3945;48.952;9.506;2023-04-24T02:13:32;96874.06;;;11.50;85.39
7802;BME280;3945;48.952;9.506;2023-04-24T02:15:58;96870.06;;;11.48;86.08
7802;BME280;3945;48.952;9.506;2023-04-24T02:18:25;96878.06;;;11.48;85.48
7802;BME280;3945;48.952;9.506;2023-04-24T02:20:51;96878.09;;;11.43;85.60
7802;BME280;3945;48.952;9.506;2023-04-24T02:23:17;96882.34;;;11.39;86.12
7802;BME280;3945;48.952;9.506;2023-04-24T02:25:43;96879.97;;;11.37;85.80
7802;BME280;3945;48.952;9.506;2023-04-24T02:28:10;96880.78;;;11.38;85.80
7802;BME280;3945;48.952;9.506;2023-04-24T02:30:38;96866.94;;;11.30;85.44
7802;BME280;3945;48.952;9.506;2023-04-24T02:33:04;96871.19;;;11.31;85.34
7802;BME280;3945;48.952;9.506;2023-04-24T02:35:31;96869.88;;;11.29;85.09
7802;BME280;3945;48.952;9.506;2023-04-24T02:37:57;96873.34;;;11.29;85.39
7802;BME280;3945;48.952;9.506;2023-04-24T02:40:23;96870.13;;;11.27;85.05
7802;BME280;3945;48.952;9.506;2023-04-24T02:42:50;96870.13;;;11.27;85.73
7802;BME280;3945;48.952;9.506;2023-04-24T02:45:16;96873.59;;;11.28;86.07
7802;BME280;3945;48.952;9.506;2023-04-24T02:47:44;96867.22;;;11.29;85.87
7802;BME280;3945;48.952;9.506;2023-04-24T02:50:10;96864.56;;;11.29;85.93
7802;BME280;3945;48.952;9.506;2023-04-24T02:52:37;96879.97;;;11.32;85.80
7802;BME280;3945;48.952;9.506;2023-04-24T02:55:03;96875.44;;;11.32;85.91
7802;BME280;3945;48.952;9.506;2023-04-24T02:57:30;96875.97;;;11.34;85.52
7802;BME280;3945;48.952;9.506;2023-04-24T02:59:56;96879.19;;;11.37;85.08
7802;BME280;3945;48.952;9.506;2023-04-24T03:02:22;96881.56;;;11.38;85.88
7802;BME280;3945;48.952;9.506;2023-04-24T03:04:50;96887.94;;;11.42;87.37
7802;BME280;3945;48.952;9.506;2023-04-24T03:07:16;96878.34;;;11.41;88.31
7802;BME280;3945;48.952;9.506;2023-04-24T03:09:45;96879.69;;;11.39;88.23
7802;BME280;3945;48.952;9.506;2023-04-24T03:12:12;96881.03;;;11.36;89.29
7802;BME280;3945;48.952;9.506;2023-04-24T03:14:38;96884.22;;;11.33;89.27
7802;BME280;3945;48.952;9.506;2023-04-24T03:17:04;96880.78;;;11.32;89.17
7802;BME280;3945;48.952;9.506;2023-04-24T03:19:31;96874.66;;;11.32;88.89
7802;BME280;3945;48.952;9.506;2023-04-24T03:21:58;96868.25;;;11.33;88.22
7802;BME280;3945;48.952;9.506;2023-04-24T03:24:25;96864.56;;;11.29;90.08
7802;BME280;3945;48.952;9.506;2023-04-24T03:26:52;96868.00;;;11.24;90.38
7802;BME280;3945;48.952;9.506;2023-04-24T03:29:19;96865.88;;;11.26;89.52
7802;BME280;3945;48.952;9.506;2023-04-24T03:31:45;96863.78;;;11.23;89.72
7802;BME280;3945;48.952;9.506;2023-04-24T03:34:11;96872.56;;;11.19;90.92
7802;BME280;3945;48.952;9.506;2023-04-24T03:36:38;96868.84;;;11.20;90.91
7802;BME280;3945;48.952;9.506;2023-04-24T03:39:05;96866.16;;;11.20;89.72
7802;BME280;3945;48.952;9.506;2023-04-24T03:41:32;96869.63;;;11.20;89.99
7802;BME280;3945;48.952;9.506;2023-04-24T03:43:58;96874.69;;;11.22;90.98
7802;BME280;3945;48.952;9.506;2023-04-24T03:46:25;96873.34;;;11.24;90.17
7802;BME280;3945;48.952;9.506;2023-04-24T03:48:51;96870.94;;;11.28;89.55
7802;BME280;3945;48.952;9.506;2023-04-24T03:51:17;96872.00;;;11.27;89.02
7802;BME280;3945;48.952;9.506;2023-04-24T03:53:44;96876.28;;;11.28;89.40
7802;BME280;3945;48.952;9.506;2023-04-24T03:56:11;96868.53;;;11.26;90.73
7802;BME280;3945;48.952;9.506;2023-04-24T03:58:38;96866.41;;;11.28;89.73
7802;BME280;3945;48.952;9.506;2023-04-24T04:01:04;96872.00;;;11.27;89.33
7802;BME280;3945;48.952;9.506;2023-04-24T04:03:30;96866.69;;;11.27;89.26
7802;BME280;3945;48.952;9.506;2023-04-24T04:05:57;96861.13;;;11.23;88.54
7802;BME280;3945;48.952;9.506;2023-04-24T04:08:23;96864.03;;;11.22;88.79
7802;BME280;3945;48.952;9.506;2023-04-24T04:10:49;96872.81;;;11.22;88.27
7802;BME280;3945;48.952;9.506;2023-04-24T04:13:17;96870.97;;;11.23;88.07
7802;BME280;3945;48.952;9.506;2023-04-24T04:15:43;96873.63;;;11.23;88.19
7802;BME280;3945;48.952;9.506;2023-04-24T04:18:10;96880.03;;;11.22;88.04
7802;BME280;3945;48.952;9.506;2023-04-24T04:20:36;96876.56;;;11.21;88.20
7802;BME280;3945;48.952;9.506;2023-04-24T04:23:03;96880.53;;;11.19;88.12
7802;BME280;3945;48.952;9.506;2023-04-24T04:25:29;96880.03;;;11.22;88.53
7802;BME280;3945;48.952;9.506;2023-04-24T04:27:56;96881.88;;;11.21;88.26
7802;BME280;3945;48.952;9.506;2023-04-24T04:30:24;96881.09;;;11.21;88.20
7802;BME280;3945;48.952;9.506;2023-04-24T04:32:51;96878.16;;;11.22;88.31
7802;BME280;3945;48.952;9.506;2023-04-24T04:35:17;96892.28;;;11.23;88.80
7802;BME280;3945;48.952;9.506;2023-04-24T04:37:44;96916.22;;;11.18;89.56
7802;BME280;3945;48.952;9.506;2023-04-24T04:40:11;96959.88;;;11.17;91.83
7802;BME280;3945;48.952;9.506;2023-04-24T04:42:37;96968.44;;;11.09;91.72
7802;BME280;3945;48.952;9.506;2023-04-24T04:45:05;96970.00;;;10.69;88.97
7802;BME280;3945;48.952;9.506;2023-04-24T04:47:35;96986.22;;;10.52;90.42
7802;BME280;3945;48.952;9.506;2023-04-24T04:50:01;96982.19;;;10.30;91.41
7802;BME280;3945;48.952;9.506;2023-04-24T04:52:28;96981.84;;;10.16;92.71
7802;BME280;3945;48.952;9.506;2023-04-24T04:54:55;96985.28;;;10.06;93.88
7802;BME280;3945;48.952;9.506;2023-04-24T04:57:21;96991.34;;;9.97;94.38
7802;BME280;3945;48.952;9.506;2023-04-24T04:59:48;96997.47;;;9.97;94.44
7802;BME280;3945;48.952;9.506;2023-04-24T05:02:14;96993.72;;;9.93;95.61
7802;BME280;3945;48.952;9.506;2023-04-24T05:04:42;97003.81;;;9.91;96.01
7802;BME280;3945;48.952;9.506;2023-04-24T05:07:08;97008.59;;;9.94;96.69
7802;BME280;3945;48.952;9.506;2023-04-24T05:09:34;97007.53;;;9.95;96.69
7802;BME280;3945;48.952;9.506;2023-04-24T05:12:01;97016.59;;;9.99;97.28
7802;BME280;3945;48.952;9.506;2023-04-24T05:14:27;97021.13;;;9.99;97.57
7802;BME280;3945;48.952;9.506;2023-04-24T05:16:53;97018.72;;;10.02;97.96
7802;BME280;3945;48.952;9.506;2023-04-24T05:19:20;97006.78;;;10.05;97.58
7802;BME280;3945;48.952;9.506;2023-04-24T05:21:47;97019.56;;;10.08;97.38
7802;BME280;3945;48.952;9.506;2023-04-24T05:24:14;97027.00;;;10.11;97.66
7802;BME280;3945;48.952;9.506;2023-04-24T05:26:40;97025.72;;;10.13;98.23
7802;BME280;3945;48.952;9.506;2023-04-24T05:29:07;97033.44;;;10.15;98.47
7802;BME280;3945;48.952;9.506;2023-04-24T05:31:33;97033.16;;;10.16;98.42
7802;BME280;3945;48.952;9.506;2023-04-24T05:33:59;97036.38;;;10.18;98.35
7802;BME280;3945;48.952;9.506;2023-04-24T05:36:26;97029.75;;;10.21;98.82
7802;BME280;3945;48.952;9.506;2023-04-24T05:38:54;97048.63;;;10.25;99.22
7802;BME280;3945;48.952;9.506;2023-04-24T05:41:21;97051.34;;;10.30;98.91
7802;BME280;3945;48.952;9.506;2023-04-24T05:43:47;97051.88;;;10.37;99.11
7802;BME280;3945;48.952;9.506;2023-04-24T05:46:14;97040.97;;;10.38;99.14
7802;BME280;3945;48.952;9.506;2023-04-24T05:48:40;97047.63;;;10.41;98.80
7802;BME280;3945;48.952;9.506;2023-04-24T05:51:06;97046.31;;;10.43;99.12
7802;BME280;3945;48.952;9.506;2023-04-24T05:53:33;97055.38;;;10.47;99.31
7802;BME280;3945;48.952;9.506;2023-04-24T05:56:00;97050.84;;;10.48;99.01
7802;BME280;3945;48.952;9.506;2023-04-24T05:58:27;97071.59;;;10.46;98.56
7802;BME280;3945;48.952;9.506;2023-04-24T06:00:53;97062.28;;;10.48;98.42
7802;BME280;3945;48.952;9.506;2023-04-24T06:03:20;97075.28;;;10.45;98.16
7802;BME280;3945;48.952;9.506;2023-04-24T06:05:46;97077.69;;;10.41;97.94
7802;BME280;3945;48.952;9.506;2023-04-24T06:08:13;97085.13;;;10.39;98.30
7802;BME280;3945;48.952;9.506;2023-04-24T06:10:39;97084.59;;;10.37;97.99
7802;BME280;3945;48.952;9.506;2023-04-24T06:13:07;97087.22;;;10.32;97.65
7802;BME280;3945;48.952;9.506;2023-04-24T06:15:34;97092.00;;;10.30;97.42
7802;BME280;3945;48.952;9.506;2023-04-24T06:18:00;97089.31;;;10.30;97.90
7802;BME280;3945;48.952;9.506;2023-04-24T06:20:26;97090.69;;;10.33;98.04
7802;BME280;3945;48.952;9.506;2023-04-24T06:22:53;97096.56;;;10.35;97.48
7802;BME280;3945;48.952;9.506;2023-04-24T06:25:19;97099.75;;;10.37;96.46
7802;BME280;3945;48.952;9.506;2023-04-24T06:27:45;97098.66;;;10.38;96.40
7802;BME280;3945;48.952;9.506;2023-04-24T06:30:13;97099.72;;;10.32;95.61
7802;BME280;3945;48.952;9.506;2023-04-24T06:32:40;97094.13;;;10.28;95.09
7802;BME280;3945;48.952;9.506;2023-04-24T06:35:06;97092.53;;;10.27;95.61
7802;BME280;3945;48.952;9.506;2023-04-24T06:37:34;97091.72;;;10.27;96.06
7802;BME280;3945;48.952;9.506;2023-04-24T06:40:01;97088.88;;;10.43;96.59
7802;BME280;3945;48.952;9.506;2023-04-24T06:42:27;97084.16;;;10.66;95.92
7802;BME280;3945;48.952;9.506;2023-04-24T06:44:54;97087.41;;;10.88;94.99
7802;BME280;3945;48.952;9.506;2023-04-24T06:47:21;97080.53;;;11.27;93.37
7802;BME280;3945;48.952;9.506;2023-04-24T06:49:48;97076.25;;;11.72;92.40
7802;BME280;3945;48.952;9.506;2023-04-24T06:52:16;97079.94;;;12.11;89.98
7802;BME280;3945;48.952;9.506;2023-04-24T06:54:42;97081.47;;;12.28;87.28
7802;BME280;3945;48.952;9.506;2023-04-24T06:57:08;97073.66;;;12.51;87.36
7802;BME280;3945;48.952;9.506;2023-04-24T06:59:35;97089.69;;;12.41;84.51
7802;BME280;3945;48.952;9.506;2023-04-24T07:02:01;97081.50;;;12.23;85.85
7802;BME280;3945;48.952;9.506;2023-04-24T07:04:29;97086.38;;;12.00;85.44
7802;BME280;3945;48.952;9.506;2023-04-24T07:06:55;97083.22;;;11.78;86.20
7802;BME280;3945;48.952;9.506;2023-04-24T07:09:23;97081.88;;;11.65;86.72
7802;BME280;3945;48.952;9.506;2023-04-24T07:11:50;97087.75;;;11.52;86.00
7802;BME280;3945;48.952;9.506;2023-04-24T07:14:16;97087.47;;;11.44;86.12
7802;BME280;3945;48.952;9.506;2023-04-24T07:16:43;97082.66;;;11.41;87.56
7802;BME280;3945;48.952;9.506;2023-04-24T07:19:10;97083.75;;;11.50;88.39
7802;BME280;3945;48.952;9.506;2023-04-24T07:21:37;97081.06;;;11.55;87.96
7802;BME280;3945;48.952;9.506;2023-04-24T07:24:04;97081.31;;;11.63;85.64
7802;BME280;3945;48.952;9.506;2023-04-24T07:26:34;97087.19;;;11.76;85.80
7802;BME280;3945;48.952;9.506;2023-04-24T07:29:00;97077.88;;;11.88;84.08
7802;BME280;3945;48.952;9.506;2023-04-24T07:31:27;97087.13;;;12.16;85.18
7802;BME280;3945;48.952;9.506;2023-04-24T07:33:53;97090.50;;;12.42;85.78
7802;BME280;3945;48.952;9.506;2023-04-24T07:36:22;97086.47;;;12.49;81.58
7802;BME280;3945;48.952;9.506;2023-04-24T07:38:51;97091.31;;;12.42;80.75
7802;BME280;3945;48.952;9.506;2023-04-24T07:41:17;97089.75;;;12.26;80.89
7802;BME280;3945;48.952;9.506;2023-04-24T07:43:43;97090.63;;;12.01;80.23
7802;BME280;3945;48.952;9.506;2023-04-24T07:46:10;97097.59;;;11.87;81.96
7802;BME280;3945;48.952;9.506;2023-04-24T07:48:37;97109.03;;;11.67;81.54
7802;BME280;3945;48.952;9.506;2023-04-24T07:51:03;97107.72;;;11.50;82.22
7802;BME280;3945;48.952;9.506;2023-04-24T07:53:29;97123.16;;;11.38;82.02
7802;BME280;3945;48.952;9.506;2023-04-24T07:55:57;97116.47;;;11.25;82.65
7802;BME280;3945;48.952;9.506;2023-04-24T07:58:24;97121.56;;;11.21;83.37
7802;BME280;3945;48.952;9.506;2023-04-24T08:00:50;97119.13;;;11.25;83.07
7802;BME280;3945;48.952;9.506;2023-04-24T08:03:16;97126.34;;;11.40;82.39
7802;BME280;3945;48.952;9.506;2023-04-24T08:05:44;97118.38;;;11.50;81.46
7802;BME280;3945;48.952;9.506;2023-04-24T08:08:11;97124.75;;;11.49;79.17
7802;BME280;3945;48.952;9.506;2023-04-24T08:10:37;97125.56;;;11.44;77.22
7802;BME280;3945;48.952;9.506;2023-04-24T08:13:05;97141.28;;;11.30;76.55
7802;BME280;3945;48.952;9.506;2023-04-24T08:15:31;97141.00;;;11.22;77.10
7802;BME280;3945;48.952;9.506;2023-04-24T08:17:57;97151.34;;;11.18;77.25
7802;BME280;3945;48.952;9.506;2023-04-24T08:20:24;97162.81;;;11.19;77.90
7802;BME280;3945;48.952;9.506;2023-04-24T08:22:50;97163.06;;;11.17;76.00
7802;BME280;3945;48.952;9.506;2023-04-24T08:25:16;97149.81;;;11.43;75.95
7802;BME280;3945;48.952;9.506;2023-04-24T08:27:44;97155.69;;;11.65;76.72
7802;BME280;3945;48.952;9.506;2023-04-24T08:30:12;97161.84;;;11.76;74.35
7802;BME280;3945;48.952;9.506;2023-04-24T08:32:38;97156.78;;;11.79;72.50
7802;BME280;3945;48.952;9.506;2023-04-24T08:35:05;97171.97;;;11.79;70.82
7802;BME280;3945;48.952;9.506;2023-04-24T08:37:33;97179.94;;;11.68;69.17
7802;BME280;3945;48.952;9.506;2023-04-24T08:40:00;97183.44;;;11.74;68.24
7802;BME280;3945;48.952;9.506;2023-04-24T08:42:27;97175.16;;;11.86;69.19
7802;BME280;3945;48.952;9.506;2023-04-24T08:44:54;97178.88;;;12.05;69.38
7802;BME280;3945;48.952;9.506;2023-04-24T08:47:22;97177.56;;;12.02;67.13
7802;BME280;3945;48.952;9.506;2023-04-24T08:49:49;97183.69;;;12.23;67.49
7802;BME280;3945;48.952;9.506;2023-04-24T08:52:16;97187.34;;;12.47;66.53
7802;BME280;3945;48.952;9.506;2023-04-24T08:54:45;97182.75;;;12.73;64.47
7802;BME280;3945;48.952;9.506;2023-04-24T08:57:11;97188.72;;;13.04;62.98
7802;BME280;3945;48.952;9.506;2023-04-24T08:59:40;97192.16;;;13.25;59.81
7802;BME280;3945;48.952;9.506;2023-04-24T09:02:08;97188.97;;;13.23;60.56
7802;BME280;3945;48.952;9.506;2023-04-24T09:04:37;97181.47;;;13.25;60.72
7802;BME280;3945;48.952;9.506;2023-04-24T09:07:03;97187.53;;;13.36;59.48
7802;BME280;3945;48.952;9.506;2023-04-24T09:09:32;97179.69;;;13.49;59.97
7802;BME280;3945;48.952;9.506;2023-04-24T09:11:59;97185.00;;;13.59;62.03
7802;BME280;3945;48.952;9.506;2023-04-24T09:14:26;97178.63;;;13.89;59.10
7802;BME280;3945;48.952;9.506;2023-04-24T09:16:53;97187.34;;;14.00;58.76
7802;BME280;3945;48.952;9.506;2023-04-24T09:19:19;97193.50;;;14.00;60.21
7802;BME280;3945;48.952;9.506;2023-04-24T09:21:48;97190.09;;;13.56;59.61
7802;BME280;3945;48.952;9.506;2023-04-24T09:24:15;97193.50;;;13.22;60.09
7802;BME280;3945;48.952;9.506;2023-04-24T09:26:43;97191.19;;;12.90;60.71
7802;BME280;3945;48.952;9.506;2023-04-24T09:29:14;97187.28;;;12.73;62.14
7802;BME280;3945;48.952;9.506;2023-04-24T09:31:40;97196.91;;;12.74;63.08
7802;BME280;3945;48.952;9.506;2023-04-24T09:34:06;97193.94;;;12.75;63.50
7802;BME280;3945;48.952;9.506;2023-04-24T09:36:33;97194.72;;;12.76;65.08
7802;BME280;3945;48.952;9.506;2023-04-24T09:39:04;97199.88;;;12.57;63.68
7802;BME280;3945;48.952;9.506;2023-04-24T09:41:32;97207.09;;;12.51;65.27
7802;BME280;3945;48.952;9.506;2023-04-24T09:44:01;97209.00;;;12.36;64.76
7802;BME280;3945;48.952;9.506;2023-04-24T09:46:37;97207.69;;;12.23;65.70
7802;BME280;3945;48.952;9.506;2023-04-24T09:49:07;97207.94;;;12.11;66.72
7802;BME280;3945;48.952;9.506;2023-04-24T09:51:34;97220.47;;;11.96;67.14
7802;BME280;3945;48.952;9.506;2023-04-24T09:54:03;97219.69;;;11.85;67.90
7802;BME280;3945;48.952;9.506;2023-04-24T09:56:32;97226.34;;;11.83;69.01
7802;BME280;3945;48.952;9.506;2023-04-24T09:59:03;97235.94;;;11.89;69.25
7802;BME280;3945;48.952;9.506;2023-04-24T10:01:30;97234.09;;;11.94;69.22
7802;BME280;3945;48.952;9.506;2023-04-24T10:03:57;97232.50;;;12.08;65.56
7802;BME280;3945;48.952;9.506;2023-04-24T10:06:24;97233.53;;;12.33;63.26
7802;BME280;3945;48.952;9.506;2023-04-24T10:08:55;97239.41;;;12.35;63.16
7802;BME280;3945;48.952;9.506;2023-04-24T10:11:24;97249.28;;;12.29;62.54
7802;BME280;3945;48.952;9.506;2023-04-24T10:13:51;97254.34;;;12.21;63.94
7802;BME280;3945;48.952;9.506;2023-04-24T10:16:18;97258.63;;;12.17;63.50
7802;BME280;3945;48.952;9.506;2023-04-24T10:18:45;97255.97;;;12.17;64.10
7802;BME280;3945;48.952;9.506;2023-04-24T10:21:11;97261.81;;;12.13;64.35
7802;BME280;3945;48.952;9.506;2023-04-24T10:23:38;97273.81;;;12.11;62.94
7802;BME280;3945;48.952;9.506;2023-04-24T10:26:05;97267.97;;;12.14;62.80
7802;BME280;3945;48.952;9.506;2023-04-24T10:28:33;97267.69;;;12.21;62.43
7802;BME280;3945;48.952;9.506;2023-04-24T10:31:02;97270.06;;;12.32;61.83
7802;BME280;3945;48.952;9.506;2023-04-24T10:33:28;97256.22;;;12.45;62.35
7802;BME280;3945;48.952;9.506;2023-04-24T10:35:55;97256.69;;;12.63;62.39
7802;BME280;3945;48.952;9.506;2023-04-24T10:38:24;97250.53;;;12.77;61.49
7802;BME280;3945;48.952;9.506;2023-04-24T10:40:50;97253.75;;;12.74;63.38
7802;BME280;3945;48.952;9.506;2023-04-24T10:43:17;97255.41;;;12.60;62.41
7802;BME280;3945;48.952;9.506;2023-04-24T10:48:42;97264.22;;;12.20;62.50
7802;BME280;3945;48.952;9.506;2023-04-24T10:51:11;97263.44;;;12.09;62.72
7802;BME280;3945;48.952;9.506;2023-04-24T10:53:37;97285.81;;;12.03;64.26
7802;BME280;3945;48.952;9.506;2023-04-24T10:56:04;97278.63;;;11.94;63.89
7802;BME280;3945;48.952;9.506;2023-04-24T10:58:38;97280.47;;;11.93;64.79
7802;BME280;3945;48.952;9.506;2023-04-24T11:01:05;97288.75;;;11.97;63.78
7802;BME280;3945;48.952;9.506;2023-04-24T11:03:32;97283.16;;;11.98;62.82
7802;BME280;3945;48.952;9.506;2023-04-24T11:06:01;97288.22;;;12.05;61.20
7802;BME280;3945;48.952;9.506;2023-04-24T11:08:28;97294.91;;;12.02;62.69
7802;BME280;3945;48.952;9.506;2023-04-24T11:11:02;97290.09;;;11.94;63.75
7802;BME280;3945;48.952;9.506;2023-04-24T11:16:15;97297.53;;;11.92;63.56
7802;BME280;3945;48.952;9.506;2023-04-24T11:18:45;97301.84;;;12.13;63.54
7802;BME280;3945;48.952;9.506;2023-04-24T11:21:19;97300.22;;;12.33;62.61
7802;BME280;3945;48.952;9.506;2023-04-24T11:23:46;97299.41;;;12.47;63.35
7802;BME280;3945;48.952;9.506;2023-04-24T11:26:13;97303.97;;;12.52;64.14
7802;BME280;3945;48.952;9.506;2023-04-24T11:28:46;97299.41;;;12.63;64.36
7802;BME280;3945;48.952;9.506;2023-04-24T11:33:58;97300.72;;;12.85;63.24
7802;BME280;3945;48.952;9.506;2023-04-24T11:36:32;97295.31;;;13.06;64.24
7802;BME280;3945;48.952;9.506;2023-04-24T11:38:59;97302.00;;;13.13;61.58
7802;BME280;3945;48.952;9.506;2023-04-24T11:41:26;97301.47;;;13.01;61.28
7802;BME280;3945;48.952;9.506;2023-04-24T11:43:53;97309.00;;;12.79;61.70
7802;BME280;3945;48.952;9.506;2023-04-24T11:46:20;97329.56;;;12.48;60.18
7802;BME280;3945;48.952;9.506;2023-04-24T11:48:46;97324.25;;;12.33;61.68
7802;BME280;3945;48.952;9.506;2023-04-24T11:51:13;97312.25;;;12.35;62.47
7802;BME280;3945;48.952;9.506;2023-04-24T11:53:40;97315.72;;;12.51;62.10
7802;BME280;3945;48.952;9.506;2023-04-24T11:56:08;97313.81;;;12.62;61.58
7802;BME280;3945;48.952;9.506;2023-04-24T11:58:35;97316.50;;;12.62;61.07
7802;BME280;3945;48.952;9.506;2023-04-24T12:01:01;97324.50;;;12.62;60.54
7802;BME280;3945;48.952;9.506;2023-04-24T12:03:28;97330.94;;;12.50;60.44
7802;BME280;3945;48.952;9.506;2023-04-24T12:06:04;97338.66;;;12.37;61.37
7802;BME280;3945;48.952;9.506;2023-04-24T12:08:31;97319.19;;;12.36;61.49
7802;BME280;3945;48.952;9.506;2023-04-24T12:10:58;97328.00;;;12.37;62.14
7802;BME280;3945;48.952;9.506;2023-04-24T12:13:26;97330.91;;;12.35;62.39
7802;BME280;3945;48.952;9.506;2023-04-24T12:15:52;97323.72;;;12.36;62.16
7802;BME280;3945;48.952;9.506;2023-04-24T12:18:18;97331.47;;;12.37;62.22
7802;BME280;3945;48.952;9.506;2023-04-24T12:20:48;97329.84;;;12.36;62.05
7802;BME280;3945;48.952;9.506;2023-04-24T12:23:14;97336.00;;;12.42;62.97
7802;BME280;3945;48.952;9.506;2023-04-24T12:25:40;97341.59;;;12.45;63.98
7802;BME280;3945;48.952;9.506;2023-04-24T12:28:12;97339.47;;;12.42;63.33
7802;BME280;3945;48.952;9.506;2023-04-24T12:30:39;97361.06;;;12.31;61.91
7802;BME280;3945;48.952;9.506;2023-04-24T12:33:06;97346.91;;;12.25;60.92
7802;BME280;3945;48.952;9.506;2023-04-24T12:35:33;97347.72;;;12.21;61.81
7802;BME280;3945;48.952;9.506;2023-04-24T12:38:05;97348.78;;;12.20;63.34
7802;BME280;3945;48.952;9.506;2023-04-24T12:40:31;97338.91;;;12.15;62.49
7802;BME280;3945;48.952;9.506;2023-04-24T12:42:58;97340.22;;;12.12;62.23
7802;BME280;3945;48.952;9.506;2023-04-24T12:45:25;97330.66;;;12.22;62.83
7802;BME280;3945;48.952;9.506;2023-04-24T12:47:53;97331.47;;;12.37;63.60
7802;BME280;3945;48.952;9.506;2023-04-24T12:50:19;97336.28;;;12.45;62.90
7802;BME280;3945;48.952;9.506;2023-04-24T12:52:45;97333.06;;;12.43;63.04
7802;BME280;3945;48.952;9.506;2023-04-24T12:55:12;97331.75;;;12.46;63.28
7802;BME280;3945;48.952;9.506;2023-04-24T12:57:39;97334.41;;;12.36;63.96
7802;BME280;3945;48.952;9.506;2023-04-24T13:00:06;97345.31;;;12.19;64.40
7802;BME280;3945;48.952;9.506;2023-04-24T13:02:34;97357.00;;;11.88;66.22
7802;BME280;3945;48.952;9.506;2023-04-24T13:05:01;97370.34;;;11.35;70.75
7802;BME280;3945;48.952;9.506;2023-04-24T13:07:28;97364.06;;;11.05;72.78
7802;BME280;3945;48.952;9.506;2023-04-24T13:09:54;97371.94;;;10.89;73.97
7802;BME280;3945;48.952;9.506;2023-04-24T13:12:21;97375.97;;;10.92;74.82
7802;BME280;3945;48.952;9.506;2023-04-24T13:14:48;97369.06;;;10.96;75.36
7802;BME280;3945;48.952;9.506;2023-04-24T13:17:15;97374.16;;;11.03;75.74
7802;BME280;3945;48.952;9.506;2023-04-24T13:19:43;97364.06;;;11.10;75.02
7802;BME280;3945;48.952;9.506;2023-04-24T13:22:10;97363.34;;;11.19;75.16
7802;BME280;3945;48.952;9.506;2023-04-24T13:24:37;97351.91;;;11.24;75.06
7802;BME280;3945;48.952;9.506;2023-04-24T13:27:04;97354.63;;;11.34;74.94
7802;BME280;3945;48.952;9.506;2023-04-24T13:29:31;97352.28;;;11.43;72.92